sensor_id;sensor_type;location;lat;lon;timestamp;temperature;humidity
53880;DHT22;39791;53.184;5.486;2022-12-07T00:01:33;9.10;35.90
53880;DHT22;39791;53.184;5.486;2022-12-07T00:04:01;9.00;53.60
53880;DHT22;39791;53.184;5.486;2022-12-07T00:06:34;9.00;72.30
53880;DHT22;39791;53.184;5.486;2022-12-07T00:09:01;9.00;91.70
53880;DHT22;39791;53.184;5.486;2022-12-07T00:11:26;9.10;99.90
53880;DHT22;39791;53.184;5.486;2022-12-07T00:13:54;9.10;99.90
53880;DHT22;39791;53.184;5.486;2022-12-07T00:16:21;9.10;99.90
53880;DHT22;39791;53.184;5.486;2022-12-07T00:18:47;9.10;99.90
53880;DHT22;39791;53.184;5.486;2022-12-07T00:21:15;9.90;99.90
53880;DHT22;39791;53.184;5.486;2022-12-07T00:23:41;9.20;99.90
53880;DHT22;39791;53.184;5.486;2022-12-07T00:26:10;9.10;99.90
53880;DHT22;39791;53.184;5.486;2022-12-07T00:28:36;9.20;99.90
53880;DHT22;39791;53.184;5.486;2022-12-07T00:31:08;9.00;99.90
53880;DHT22;39791;53.184;5.486;2022-12-07T00:33:34;8.90;99.90
53880;DHT22;39791;53.184;5.486;2022-12-07T00:36:01;9.00;99.90
53880;DHT22;39791;53.184;5.486;2022-12-07T00:38:30;8.90;99.90
53880;DHT22;39791;53.184;5.486;2022-12-07T00:41:07;8.90;99.90
53880;DHT22;39791;53.184;5.486;2022-12-07T00:43:32;8.90;99.90
53880;DHT22;39791;53.184;5.486;2022-12-07T00:45:58;9.00;99.90
53880;DHT22;39791;53.184;5.486;2022-12-07T00:48:24;8.90;99.90
53880;DHT22;39791;53.184;5.486;2022-12-07T00:50:50;8.80;99.90
53880;DHT22;39791;53.184;5.486;2022-12-07T00:53:16;8.90;99.90
53880;DHT22;39791;53.184;5.486;2022-12-07T00:55:42;9.10;99.90
53880;DHT22;39791;53.184;5.486;2022-12-07T00:58:08;9.10;99.90
53880;DHT22;39791;53.184;5.486;2022-12-07T01:00:36;9.20;99.90
53880;DHT22;39791;53.184;5.486;2022-12-07T01:03:02;9.10;99.90
53880;DHT22;39791;53.184;5.486;2022-12-07T01:05:27;9.20;99.90
53880;DHT22;39791;53.184;5.486;2022-12-07T01:07:53;9.00;1.00
53880;DHT22;39791;53.184;5.486;2022-12-07T01:10:19;9.10;1.00
53880;DHT22;39791;53.184;5.486;2022-12-07T01:12:44;9.00;1.00
53880;DHT22;39791;53.184;5.486;2022-12-07T01:15:11;9.10;1.00
53880;DHT22;39791;53.184;5.486;2022-12-07T01:17:36;9.30;1.00
53880;DHT22;39791;53.184;5.486;2022-12-07T01:20:02;9.20;1.00
53880;DHT22;39791;53.184;5.486;2022-12-07T01:22:28;9.20;1.00
53880;DHT22;39791;53.184;5.486;2022-12-07T01:24:54;9.30;1.00
53880;DHT22;39791;53.184;5.486;2022-12-07T01:27:20;9.20;99.90
53880;DHT22;39791;53.184;5.486;2022-12-07T01:29:45;9.30;99.90
53880;DHT22;39791;53.184;5.486;2022-12-07T01:32:11;9.30;99.90
53880;DHT22;39791;53.184;5.486;2022-12-07T01:34:36;9.40;99.90
53880;DHT22;39791;53.184;5.486;2022-12-07T01:37:02;9.60;99.90
53880;DHT22;39791;53.184;5.486;2022-12-07T01:39:28;9.60;99.90
53880;DHT22;39791;53.184;5.486;2022-12-07T01:41:53;9.50;99.90
53880;DHT22;39791;53.184;5.486;2022-12-07T01:44:26;9.40;62.90
53880;DHT22;39791;53.184;5.486;2022-12-07T01:46:53;9.40;23.50
53880;DHT22;39791;53.184;5.486;2022-12-07T01:49:40;9.50;1.00
53880;DHT22;39791;53.184;5.486;2022-12-07T01:54:39;9.60;1.00
53880;DHT22;39791;53.184;5.486;2022-12-07T01:57:06;9.80;1.00
53880;DHT22;39791;53.184;5.486;2022-12-07T01:59:33;10.00;1.00
53880;DHT22;39791;53.184;5.486;2022-12-07T02:02:00;9.90;1.00
53880;DHT22;39791;53.184;5.486;2022-12-07T02:04:27;10.00;99.90
53880;DHT22;39791;53.184;5.486;2022-12-07T02:06:54;9.90;99.90
53880;DHT22;39791;53.184;5.486;2022-12-07T02:09:21;9.70;99.90
53880;DHT22;39791;53.184;5.486;2022-12-07T02:11:46;9.50;1.00
53880;DHT22;39791;53.184;5.486;2022-12-07T02:14:12;9.40;1.00
53880;DHT22;39791;53.184;5.486;2022-12-07T02:19:39;9.20;1.00
53880;DHT22;39791;53.184;5.486;2022-12-07T02:22:41;9.40;1.00
53880;DHT22;39791;53.184;5.486;2022-12-07T02:25:28;9.50;1.00
53880;DHT22;39791;53.184;5.486;2022-12-07T02:28:01;9.30;1.00
53880;DHT22;39791;53.184;5.486;2022-12-07T02:30:32;9.30;99.90
53880;DHT22;39791;53.184;5.486;2022-12-07T02:33:09;9.50;99.90
53880;DHT22;39791;53.184;5.486;2022-12-07T02:35:51;9.40;99.90
53880;DHT22;39791;53.184;5.486;2022-12-07T02:38:37;9.40;99.90
53880;DHT22;39791;53.184;5.486;2022-12-07T02:41:09;9.30;99.90
53880;DHT22;39791;53.184;5.486;2022-12-07T02:43:43;9.10;99.90
53880;DHT22;39791;53.184;5.486;2022-12-07T02:46:22;9.00;99.90
53880;DHT22;39791;53.184;5.486;2022-12-07T02:48:50;8.90;99.90
53880;DHT22;39791;53.184;5.486;2022-12-07T02:51:17;8.80;99.90
53880;DHT22;39791;53.184;5.486;2022-12-07T02:53:44;8.70;99.90
53880;DHT22;39791;53.184;5.486;2022-12-07T03:01:39;8.40;1.00
53880;DHT22;39791;53.184;5.486;2022-12-07T03:04:38;8.40;1.00
53880;DHT22;39791;53.184;5.486;2022-12-07T03:07:29;8.70;1.00
53880;DHT22;39791;53.184;5.486;2022-12-07T03:10:21;8.70;1.00
53880;DHT22;39791;53.184;5.486;2022-12-07T03:13:09;8.80;1.00
53880;DHT22;39791;53.184;5.486;2022-12-07T03:15:46;8.80;1.00
53880;DHT22;39791;53.184;5.486;2022-12-07T03:18:18;8.80;1.00
53880;DHT22;39791;53.184;5.486;2022-12-07T03:20:46;8.90;1.00
53880;DHT22;39791;53.184;5.486;2022-12-07T03:23:15;8.80;1.00
53880;DHT22;39791;53.184;5.486;2022-12-07T03:25:47;8.70;1.00
53880;DHT22;39791;53.184;5.486;2022-12-07T03:28:16;8.70;1.00
53880;DHT22;39791;53.184;5.486;2022-12-07T03:30:50;8.50;1.00
53880;DHT22;39791;53.184;5.486;2022-12-07T03:33:24;8.50;1.00
53880;DHT22;39791;53.184;5.486;2022-12-07T03:36:04;8.50;1.00
53880;DHT22;39791;53.184;5.486;2022-12-07T03:39:38;8.30;1.00
53880;DHT22;39791;53.184;5.486;2022-12-07T03:41:33;8.30;1.00
53880;DHT22;39791;53.184;5.486;2022-12-07T03:44:00;8.30;1.00
53880;DHT22;39791;53.184;5.486;2022-12-07T03:46:51;8.30;1.00
53880;DHT22;39791;53.184;5.486;2022-12-07T03:49:41;8.30;1.00
53880;DHT22;39791;53.184;5.486;2022-12-07T03:52:26;8.20;1.00
53880;DHT22;39791;53.184;5.486;2022-12-07T03:57:28;8.30;1.00
53880;DHT22;39791;53.184;5.486;2022-12-07T03:59:55;8.30;1.00
53880;DHT22;39791;53.184;5.486;2022-12-07T04:02:22;8.40;1.00
53880;DHT22;39791;53.184;5.486;2022-12-07T04:04:49;8.60;1.00
53880;DHT22;39791;53.184;5.486;2022-12-07T04:07:15;8.50;1.00
53880;DHT22;39791;53.184;5.486;2022-12-07T04:09:40;8.50;1.00
53880;DHT22;39791;53.184;5.486;2022-12-07T04:12:06;8.50;1.00
53880;DHT22;39791;53.184;5.486;2022-12-07T04:14:32;8.50;1.00
53880;DHT22;39791;53.184;5.486;2022-12-07T04:16:58;8.60;1.00
53880;DHT22;39791;53.184;5.486;2022-12-07T04:19:26;8.50;1.00
53880;DHT22;39791;53.184;5.486;2022-12-07T04:21:52;8.50;1.00
53880;DHT22;39791;53.184;5.486;2022-12-07T04:24:18;8.50;1.00
53880;DHT22;39791;53.184;5.486;2022-12-07T04:26:45;8.50;1.00
53880;DHT22;39791;53.184;5.486;2022-12-07T04:29:11;8.50;1.00
53880;DHT22;39791;53.184;5.486;2022-12-07T04:31:37;8.60;1.00
53880;DHT22;39791;53.184;5.486;2022-12-07T04:34:03;8.70;1.00
53880;DHT22;39791;53.184;5.486;2022-12-07T04:36:29;8.80;1.00
53880;DHT22;39791;53.184;5.486;2022-12-07T04:38:55;8.90;1.00
53880;DHT22;39791;53.184;5.486;2022-12-07T04:41:21;8.90;1.00
53880;DHT22;39791;53.184;5.486;2022-12-07T04:44:02;8.90;1.00
53880;DHT22;39791;53.184;5.486;2022-12-07T04:46:30;8.90;99.90
53880;DHT22;39791;53.184;5.486;2022-12-07T04:48:56;9.00;99.90
53880;DHT22;39791;53.184;5.486;2022-12-07T04:51:27;9.00;1.00
53880;DHT22;39791;53.184;5.486;2022-12-07T04:53:53;8.90;1.00
53880;DHT22;39791;53.184;5.486;2022-12-07T04:56:19;8.80;1.00
53880;DHT22;39791;53.184;5.486;2022-12-07T04:58:46;8.50;1.00
53880;DHT22;39791;53.184;5.486;2022-12-07T05:01:13;8.30;1.00
53880;DHT22;39791;53.184;5.486;2022-12-07T05:03:39;8.10;1.00
53880;DHT22;39791;53.184;5.486;2022-12-07T05:06:06;8.00;1.00
53880;DHT22;39791;53.184;5.486;2022-12-07T05:08:32;7.90;1.00
53880;DHT22;39791;53.184;5.486;2022-12-07T05:10:58;8.10;1.00
53880;DHT22;39791;53.184;5.486;2022-12-07T05:13:24;7.90;1.00
53880;DHT22;39791;53.184;5.486;2022-12-07T05:15:49;7.80;8.20
53880;DHT22;39791;53.184;5.486;2022-12-07T05:18:15;8.00;23.00
53880;DHT22;39791;53.184;5.486;2022-12-07T05:20:41;7.80;38.20
53880;DHT22;39791;53.184;5.486;2022-12-07T05:23:07;7.90;54.70
53880;DHT22;39791;53.184;5.486;2022-12-07T05:25:33;7.90;68.70
53880;DHT22;39791;53.184;5.486;2022-12-07T05:27:59;7.90;90.60
53880;DHT22;39791;53.184;5.486;2022-12-07T05:30:25;7.70;97.00
53880;DHT22;39791;53.184;5.486;2022-12-07T05:32:51;7.80;99.80
53880;DHT22;39791;53.184;5.486;2022-12-07T05:35:17;7.90;99.90
53880;DHT22;39791;53.184;5.486;2022-12-07T05:37:43;7.90;99.90
53880;DHT22;39791;53.184;5.486;2022-12-07T05:40:09;7.80;99.90
53880;DHT22;39791;53.184;5.486;2022-12-07T05:42:35;7.80;99.90
53880;DHT22;39791;53.184;5.486;2022-12-07T05:45:00;7.80;99.90
53880;DHT22;39791;53.184;5.486;2022-12-07T05:47:26;7.90;99.90
53880;DHT22;39791;53.184;5.486;2022-12-07T05:49:51;8.00;99.90
53880;DHT22;39791;53.184;5.486;2022-12-07T05:52:17;8.00;99.90
53880;DHT22;39791;53.184;5.486;2022-12-07T05:54:43;8.30;99.90
53880;DHT22;39791;53.184;5.486;2022-12-07T05:57:08;8.40;98.20
53880;DHT22;39791;53.184;5.486;2022-12-07T05:59:34;8.60;1.00
53880;DHT22;39791;53.184;5.486;2022-12-07T06:02:06;8.60;1.00
53880;DHT22;39791;53.184;5.486;2022-12-07T06:04:37;8.70;1.00
53880;DHT22;39791;53.184;5.486;2022-12-07T06:07:04;8.50;1.00
53880;DHT22;39791;53.184;5.486;2022-12-07T06:09:30;8.50;1.00
53880;DHT22;39791;53.184;5.486;2022-12-07T06:11:56;8.50;1.00
53880;DHT22;39791;53.184;5.486;2022-12-07T06:14:40;8.40;1.00
53880;DHT22;39791;53.184;5.486;2022-12-07T06:17:06;8.30;1.00
53880;DHT22;39791;53.184;5.486;2022-12-07T06:19:32;8.30;1.00
53880;DHT22;39791;53.184;5.486;2022-12-07T06:21:58;8.30;1.00
53880;DHT22;39791;53.184;5.486;2022-12-07T06:24:24;8.40;1.00
53880;DHT22;39791;53.184;5.486;2022-12-07T06:26:49;8.60;1.00
53880;DHT22;39791;53.184;5.486;2022-12-07T06:29:16;8.60;1.00
53880;DHT22;39791;53.184;5.486;2022-12-07T06:31:42;8.60;1.00
53880;DHT22;39791;53.184;5.486;2022-12-07T06:34:14;8.40;1.00
53880;DHT22;39791;53.184;5.486;2022-12-07T06:36:40;8.40;1.00
53880;DHT22;39791;53.184;5.486;2022-12-07T06:39:06;8.30;1.00
53880;DHT22;39791;53.184;5.486;2022-12-07T06:41:32;8.20;1.00
53880;DHT22;39791;53.184;5.486;2022-12-07T06:43:57;8.30;1.00
53880;DHT22;39791;53.184;5.486;2022-12-07T06:46:23;8.20;1.00
53880;DHT22;39791;53.184;5.486;2022-12-07T06:48:49;8.10;1.00
53880;DHT22;39791;53.184;5.486;2022-12-07T06:51:16;8.10;1.00
53880;DHT22;39791;53.184;5.486;2022-12-07T06:53:42;8.20;1.00
53880;DHT22;39791;53.184;5.486;2022-12-07T06:56:07;8.20;1.00
53880;DHT22;39791;53.184;5.486;2022-12-07T06:58:33;8.30;1.00
53880;DHT22;39791;53.184;5.486;2022-12-07T07:00:59;8.40;1.00
53880;DHT22;39791;53.184;5.486;2022-12-07T07:03:24;8.50;1.00
53880;DHT22;39791;53.184;5.486;2022-12-07T07:05:50;8.40;1.00
53880;DHT22;39791;53.184;5.486;2022-12-07T07:08:15;8.40;1.00
53880;DHT22;39791;53.184;5.486;2022-12-07T07:10:41;8.30;1.00
53880;DHT22;39791;53.184;5.486;2022-12-07T07:13:07;8.30;1.00
53880;DHT22;39791;53.184;5.486;2022-12-07T07:15:33;8.20;1.00
53880;DHT22;39791;53.184;5.486;2022-12-07T07:17:59;8.20;1.00
53880;DHT22;39791;53.184;5.486;2022-12-07T07:20:25;8.20;1.00
53880;DHT22;39791;53.184;5.486;2022-12-07T07:22:50;8.20;1.00
53880;DHT22;39791;53.184;5.486;2022-12-07T07:25:18;8.10;1.00
53880;DHT22;39791;53.184;5.486;2022-12-07T07:27:44;8.20;1.00
53880;DHT22;39791;53.184;5.486;2022-12-07T07:30:10;8.10;1.00
53880;DHT22;39791;53.184;5.486;2022-12-07T07:32:35;8.10;1.00
53880;DHT22;39791;53.184;5.486;2022-12-07T07:35:01;8.00;1.00
53880;DHT22;39791;53.184;5.486;2022-12-07T07:37:26;7.90;1.00
53880;DHT22;39791;53.184;5.486;2022-12-07T07:39:52;7.90;1.00
53880;DHT22;39791;53.184;5.486;2022-12-07T07:42:17;8.00;1.00
53880;DHT22;39791;53.184;5.486;2022-12-07T07:44:43;7.90;1.00
53880;DHT22;39791;53.184;5.486;2022-12-07T07:47:08;8.00;1.00
53880;DHT22;39791;53.184;5.486;2022-12-07T07:49:34;8.00;1.00
53880;DHT22;39791;53.184;5.486;2022-12-07T07:52:00;8.00;1.00
53880;DHT22;39791;53.184;5.486;2022-12-07T07:54:25;8.10;1.00
53880;DHT22;39791;53.184;5.486;2022-12-07T07:56:52;8.20;1.00
53880;DHT22;39791;53.184;5.486;2022-12-07T07:59:18;8.20;1.00
53880;DHT22;39791;53.184;5.486;2022-12-07T08:01:43;8.20;1.00
53880;DHT22;39791;53.184;5.486;2022-12-07T08:04:09;8.30;1.00
53880;DHT22;39791;53.184;5.486;2022-12-07T08:06:35;8.10;1.00
53880;DHT22;39791;53.184;5.486;2022-12-07T08:09:00;8.10;1.00
53880;DHT22;39791;53.184;5.486;2022-12-07T08:11:26;8.20;1.00
53880;DHT22;39791;53.184;5.486;2022-12-07T08:13:51;8.30;1.00
53880;DHT22;39791;53.184;5.486;2022-12-07T08:16:17;8.20;1.00
53880;DHT22;39791;53.184;5.486;2022-12-07T08:18:43;8.10;1.00
53880;DHT22;39791;53.184;5.486;2022-12-07T08:21:11;8.20;1.00
53880;DHT22;39791;53.184;5.486;2022-12-07T08:23:37;8.20;1.00
53880;DHT22;39791;53.184;5.486;2022-12-07T08:26:05;8.10;1.00
53880;DHT22;39791;53.184;5.486;2022-12-07T08:28:31;8.20;1.00
53880;DHT22;39791;53.184;5.486;2022-12-07T08:31:01;8.10;4.80
53880;DHT22;39791;53.184;5.486;2022-12-07T08:33:27;8.20;16.90
53880;DHT22;39791;53.184;5.486;2022-12-07T08:35:53;8.10;29.40
53880;DHT22;39791;53.184;5.486;2022-12-07T08:38:19;8.00;40.80
53880;DHT22;39791;53.184;5.486;2022-12-07T08:40:52;8.00;46.90
53880;DHT22;39791;53.184;5.486;2022-12-07T08:43:18;7.70;66.20
53880;DHT22;39791;53.184;5.486;2022-12-07T08:45:43;7.80;67.40
53880;DHT22;39791;53.184;5.486;2022-12-07T08:48:11;7.80;78.60
53880;DHT22;39791;53.184;5.486;2022-12-07T08:50:38;7.70;93.00
53880;DHT22;39791;53.184;5.486;2022-12-07T08:53:04;7.60;99.90
53880;DHT22;39791;53.184;5.486;2022-12-07T08:55:31;7.60;99.90
53880;DHT22;39791;53.184;5.486;2022-12-07T08:57:59;7.60;99.90
53880;DHT22;39791;53.184;5.486;2022-12-07T09:00:25;7.70;99.90
53880;DHT22;39791;53.184;5.486;2022-12-07T09:02:51;7.80;99.90
53880;DHT22;39791;53.184;5.486;2022-12-07T09:05:17;7.90;99.90
53880;DHT22;39791;53.184;5.486;2022-12-07T09:07:44;7.90;99.90
53880;DHT22;39791;53.184;5.486;2022-12-07T09:10:11;8.10;99.90
53880;DHT22;39791;53.184;5.486;2022-12-07T09:12:37;8.20;99.90
53880;DHT22;39791;53.184;5.486;2022-12-07T09:15:03;8.30;99.90
53880;DHT22;39791;53.184;5.486;2022-12-07T09:17:32;8.30;99.90
53880;DHT22;39791;53.184;5.486;2022-12-07T09:19:58;8.30;99.90
53880;DHT22;39791;53.184;5.486;2022-12-07T09:22:24;8.40;99.90
53880;DHT22;39791;53.184;5.486;2022-12-07T09:24:49;8.50;99.90
53880;DHT22;39791;53.184;5.486;2022-12-07T09:27:15;8.50;99.90
53880;DHT22;39791;53.184;5.486;2022-12-07T09:29:42;8.60;99.90
53880;DHT22;39791;53.184;5.486;2022-12-07T09:32:08;8.80;99.90
53880;DHT22;39791;53.184;5.486;2022-12-07T09:34:34;8.90;62.50
53880;DHT22;39791;53.184;5.486;2022-12-07T09:37:00;9.00;1.00
53880;DHT22;39791;53.184;5.486;2022-12-07T09:39:28;9.10;1.00
53880;DHT22;39791;53.184;5.486;2022-12-07T09:41:53;9.20;1.00
53880;DHT22;39791;53.184;5.486;2022-12-07T09:44:25;9.30;1.00
53880;DHT22;39791;53.184;5.486;2022-12-07T09:46:51;9.30;1.00
53880;DHT22;39791;53.184;5.486;2022-12-07T09:49:20;9.30;1.00
53880;DHT22;39791;53.184;5.486;2022-12-07T09:51:47;9.20;99.90
53880;DHT22;39791;53.184;5.486;2022-12-07T09:54:15;9.00;99.90
53880;DHT22;39791;53.184;5.486;2022-12-07T09:56:42;8.90;99.90
53880;DHT22;39791;53.184;5.486;2022-12-07T09:59:18;8.80;99.90
53880;DHT22;39791;53.184;5.486;2022-12-07T10:01:49;8.80;99.90
53880;DHT22;39791;53.184;5.486;2022-12-07T10:04:25;8.80;99.90
53880;DHT22;39791;53.184;5.486;2022-12-07T10:06:51;8.80;99.90
53880;DHT22;39791;53.184;5.486;2022-12-07T10:09:19;8.90;99.90
53880;DHT22;39791;53.184;5.486;2022-12-07T10:12:07;9.00;99.90
53880;DHT22;39791;53.184;5.486;2022-12-07T10:14:40;9.00;99.90
53880;DHT22;39791;53.184;5.486;2022-12-07T10:22:36;9.00;99.90
53880;DHT22;39791;53.184;5.486;2022-12-07T10:25:09;9.10;99.90
53880;DHT22;39791;53.184;5.486;2022-12-07T10:27:42;9.10;99.90
53880;DHT22;39791;53.184;5.486;2022-12-07T10:30:12;9.00;99.90
53880;DHT22;39791;53.184;5.486;2022-12-07T10:32:39;9.00;99.90
53880;DHT22;39791;53.184;5.486;2022-12-07T10:35:26;9.00;99.90
53880;DHT22;39791;53.184;5.486;2022-12-07T10:37:53;9.10;99.90
53880;DHT22;39791;53.184;5.486;2022-12-07T10:40:36;9.10;99.90
53880;DHT22;39791;53.184;5.486;2022-12-07T10:49:01;9.00;99.90
53880;DHT22;39791;53.184;5.486;2022-12-07T10:51:50;8.90;99.90
53880;DHT22;39791;53.184;5.486;2022-12-07T10:54:44;8.90;99.90
53880;DHT22;39791;53.184;5.486;2022-12-07T10:57:27;8.90;99.90
53880;DHT22;39791;53.184;5.486;2022-12-07T11:00:01;8.90;99.90
53880;DHT22;39791;53.184;5.486;2022-12-07T11:05:42;9.00;99.90
53880;DHT22;39791;53.184;5.486;2022-12-07T11:11:19;9.00;99.90
53880;DHT22;39791;53.184;5.486;2022-12-07T11:14:28;8.90;99.90
53880;DHT22;39791;53.184;5.486;2022-12-07T11:16:59;8.90;99.90
53880;DHT22;39791;53.184;5.486;2022-12-07T11:19:49;8.80;99.90
53880;DHT22;39791;53.184;5.486;2022-12-07T11:22:55;8.70;99.90
53880;DHT22;39791;53.184;5.486;2022-12-07T11:28:01;8.60;99.90
53880;DHT22;39791;53.184;5.486;2022-12-07T11:33:33;8.50;99.90
53880;DHT22;39791;53.184;5.486;2022-12-07T11:36:07;8.60;99.90
53880;DHT22;39791;53.184;5.486;2022-12-07T11:41:09;8.50;99.90
53880;DHT22;39791;53.184;5.486;2022-12-07T11:55:00;8.80;99.90
53880;DHT22;39791;53.184;5.486;2022-12-07T11:57:33;8.90;99.90
53880;DHT22;39791;53.184;5.486;2022-12-07T12:00:06;8.90;99.90
53880;DHT22;39791;53.184;5.486;2022-12-07T12:03:15;8.90;99.90
53880;DHT22;39791;53.184;5.486;2022-12-07T12:05:33;9.00;99.90
53880;DHT22;39791;53.184;5.486;2022-12-07T12:08:19;9.00;99.90
53880;DHT22;39791;53.184;5.486;2022-12-07T12:13:39;9.00;99.90
53880;DHT22;39791;53.184;5.486;2022-12-07T12:16:21;9.00;99.90
53880;DHT22;39791;53.184;5.486;2022-12-07T12:21:47;9.00;99.90
53880;DHT22;39791;53.184;5.486;2022-12-07T12:24:18;8.90;99.90
53880;DHT22;39791;53.184;5.486;2022-12-07T12:26:56;9.00;99.90
53880;DHT22;39791;53.184;5.486;2022-12-07T12:29:37;9.00;99.90
53880;DHT22;39791;53.184;5.486;2022-12-07T12:32:22;9.00;99.90
53880;DHT22;39791;53.184;5.486;2022-12-07T12:42:54;8.90;99.90
53880;DHT22;39791;53.184;5.486;2022-12-07T12:47:59;8.90;99.90
53880;DHT22;39791;53.184;5.486;2022-12-07T12:50:38;8.80;99.90
53880;DHT22;39791;53.184;5.486;2022-12-07T12:53:24;8.80;99.90
53880;DHT22;39791;53.184;5.486;2022-12-07T12:58:37;8.60;99.90
53880;DHT22;39791;53.184;5.486;2022-12-07T13:03:55;8.50;99.90
53880;DHT22;39791;53.184;5.486;2022-12-07T13:08:51;8.40;99.90
53880;DHT22;39791;53.184;5.486;2022-12-07T13:11:41;8.30;99.90
53880;DHT22;39791;53.184;5.486;2022-12-07T13:17:03;8.30;99.90
53880;DHT22;39791;53.184;5.486;2022-12-07T13:25:09;8.20;99.90
53880;DHT22;39791;53.184;5.486;2022-12-07T13:27:39;8.10;1.00
53880;DHT22;39791;53.184;5.486;2022-12-07T13:30:20;8.20;1.00
53880;DHT22;39791;53.184;5.486;2022-12-07T13:32:55;8.00;1.00
53880;DHT22;39791;53.184;5.486;2022-12-07T13:37:53;7.70;1.00
53880;DHT22;39791;53.184;5.486;2022-12-07T13:40:20;7.70;1.00
53880;DHT22;39791;53.184;5.486;2022-12-07T13:42:47;7.60;1.00
53880;DHT22;39791;53.184;5.486;2022-12-07T13:45:24;7.60;1.00
53880;DHT22;39791;53.184;5.486;2022-12-07T13:48:32;7.50;1.00
53880;DHT22;39791;53.184;5.486;2022-12-07T13:51:00;7.50;1.00
53880;DHT22;39791;53.184;5.486;2022-12-07T13:53:27;7.60;1.00
53880;DHT22;39791;53.184;5.486;2022-12-07T13:55:59;7.60;1.00
53880;DHT22;39791;53.184;5.486;2022-12-07T13:58:27;7.40;1.00
53880;DHT22;39791;53.184;5.486;2022-12-07T14:00:55;7.50;1.00
53880;DHT22;39791;53.184;5.486;2022-12-07T14:03:28;7.40;1.00
53880;DHT22;39791;53.184;5.486;2022-12-07T14:06:13;7.40;1.00
53880;DHT22;39791;53.184;5.486;2022-12-07T14:08:40;7.40;1.00
53880;DHT22;39791;53.184;5.486;2022-12-07T14:11:06;7.50;1.00
53880;DHT22;39791;53.184;5.486;2022-12-07T14:13:35;7.50;1.00
53880;DHT22;39791;53.184;5.486;2022-12-07T14:16:18;7.50;1.00
53880;DHT22;39791;53.184;5.486;2022-12-07T14:18:47;7.60;1.00
53880;DHT22;39791;53.184;5.486;2022-12-07T14:23:39;7.50;1.00
53880;DHT22;39791;53.184;5.486;2022-12-07T14:26:11;7.50;1.00
53880;DHT22;39791;53.184;5.486;2022-12-07T14:28:37;7.50;1.00
53880;DHT22;39791;53.184;5.486;2022-12-07T14:31:14;8.20;1.00
53880;DHT22;39791;53.184;5.486;2022-12-07T14:33:40;7.50;1.00
53880;DHT22;39791;53.184;5.486;2022-12-07T14:36:09;7.50;1.00
53880;DHT22;39791;53.184;5.486;2022-12-07T14:38:35;7.30;1.00
53880;DHT22;39791;53.184;5.486;2022-12-07T14:41:03;7.30;1.00
53880;DHT22;39791;53.184;5.486;2022-12-07T14:43:47;7.30;1.00
53880;DHT22;39791;53.184;5.486;2022-12-07T14:46:13;7.30;1.00
53880;DHT22;39791;53.184;5.486;2022-12-07T14:48:39;7.40;2.10
53880;DHT22;39791;53.184;5.486;2022-12-07T14:51:05;7.40;9.80
53880;DHT22;39791;53.184;5.486;2022-12-07T14:53:34;7.40;19.10
53880;DHT22;39791;53.184;5.486;2022-12-07T14:56:01;7.50;99.90
53880;DHT22;39791;53.184;5.486;2022-12-07T14:58:27;7.70;99.90
53880;DHT22;39791;53.184;5.486;2022-12-07T15:00:52;7.90;99.90
53880;DHT22;39791;53.184;5.486;2022-12-07T15:03:18;8.00;40.40
53880;DHT22;39791;53.184;5.486;2022-12-07T15:05:44;8.10;9.70
53880;DHT22;39791;53.184;5.486;2022-12-07T15:08:11;8.00;1.00
53880;DHT22;39791;53.184;5.486;2022-12-07T15:10:37;8.00;1.00
53880;DHT22;39791;53.184;5.486;2022-12-07T15:13:04;8.00;1.00
53880;DHT22;39791;53.184;5.486;2022-12-07T15:15:50;7.90;1.00
53880;DHT22;39791;53.184;5.486;2022-12-07T15:18:17;7.90;1.00
53880;DHT22;39791;53.184;5.486;2022-12-07T15:20:43;7.80;1.00
53880;DHT22;39791;53.184;5.486;2022-12-07T15:23:10;7.70;1.00
53880;DHT22;39791;53.184;5.486;2022-12-07T15:25:35;7.70;1.00
53880;DHT22;39791;53.184;5.486;2022-12-07T15:28:02;7.70;1.00
53880;DHT22;39791;53.184;5.486;2022-12-07T15:30:28;7.70;1.00
53880;DHT22;39791;53.184;5.486;2022-12-07T15:32:53;7.70;1.00
53880;DHT22;39791;53.184;5.486;2022-12-07T15:35:20;7.60;1.00
53880;DHT22;39791;53.184;5.486;2022-12-07T15:37:46;7.50;1.00
53880;DHT22;39791;53.184;5.486;2022-12-07T15:40:12;7.60;1.00
53880;DHT22;39791;53.184;5.486;2022-12-07T15:42:39;7.60;1.00
53880;DHT22;39791;53.184;5.486;2022-12-07T15:45:06;7.60;1.00
53880;DHT22;39791;53.184;5.486;2022-12-07T15:47:37;7.60;1.00
53880;DHT22;39791;53.184;5.486;2022-12-07T15:50:05;7.60;1.00
53880;DHT22;39791;53.184;5.486;2022-12-07T15:52:31;7.60;1.00
53880;DHT22;39791;53.184;5.486;2022-12-07T15:54:57;7.50;1.00
53880;DHT22;39791;53.184;5.486;2022-12-07T15:57:22;7.60;1.00
53880;DHT22;39791;53.184;5.486;2022-12-07T15:59:48;7.80;1.00
53880;DHT22;39791;53.184;5.486;2022-12-07T16:02:14;7.80;1.00
53880;DHT22;39791;53.184;5.486;2022-12-07T16:04:39;7.80;1.00
53880;DHT22;39791;53.184;5.486;2022-12-07T16:07:05;7.80;1.00
53880;DHT22;39791;53.184;5.486;2022-12-07T16:09:31;7.80;1.00
53880;DHT22;39791;53.184;5.486;2022-12-07T16:11:56;7.80;1.00
53880;DHT22;39791;53.184;5.486;2022-12-07T16:14:22;7.80;1.00
53880;DHT22;39791;53.184;5.486;2022-12-07T16:16:48;7.80;1.00
53880;DHT22;39791;53.184;5.486;2022-12-07T16:19:14;7.80;1.00
53880;DHT22;39791;53.184;5.486;2022-12-07T16:21:40;7.80;1.00
53880;DHT22;39791;53.184;5.486;2022-12-07T16:24:06;7.80;1.00
53880;DHT22;39791;53.184;5.486;2022-12-07T16:26:32;7.90;1.00
53880;DHT22;39791;53.184;5.486;2022-12-07T16:28:58;7.90;1.00
53880;DHT22;39791;53.184;5.486;2022-12-07T16:31:26;7.90;1.00
53880;DHT22;39791;53.184;5.486;2022-12-07T16:33:56;7.80;1.00
53880;DHT22;39791;53.184;5.486;2022-12-07T16:36:22;7.70;1.00
53880;DHT22;39791;53.184;5.486;2022-12-07T16:38:49;7.80;1.00
53880;DHT22;39791;53.184;5.486;2022-12-07T16:41:15;7.80;1.00
53880;DHT22;39791;53.184;5.486;2022-12-07T16:43:41;7.70;1.00
53880;DHT22;39791;53.184;5.486;2022-12-07T16:46:07;7.80;1.00
53880;DHT22;39791;53.184;5.486;2022-12-07T16:48:36;7.70;1.00
53880;DHT22;39791;53.184;5.486;2022-12-07T16:51:06;7.70;1.00
53880;DHT22;39791;53.184;5.486;2022-12-07T16:53:34;7.70;1.00
53880;DHT22;39791;53.184;5.486;2022-12-07T16:56:00;7.80;1.00
53880;DHT22;39791;53.184;5.486;2022-12-07T16:58:26;7.80;1.00
53880;DHT22;39791;53.184;5.486;2022-12-07T17:00:51;7.80;1.00
53880;DHT22;39791;53.184;5.486;2022-12-07T17:03:17;7.80;1.00
53880;DHT22;39791;53.184;5.486;2022-12-07T17:05:44;7.90;1.00
53880;DHT22;39791;53.184;5.486;2022-12-07T17:08:11;7.90;1.00
53880;DHT22;39791;53.184;5.486;2022-12-07T17:10:39;7.80;1.00
53880;DHT22;39791;53.184;5.486;2022-12-07T17:13:05;7.80;99.90
53880;DHT22;39791;53.184;5.486;2022-12-07T17:15:57;7.70;99.90
53880;DHT22;39791;53.184;5.486;2022-12-07T17:18:22;7.80;99.90
53880;DHT22;39791;53.184;5.486;2022-12-07T17:20:48;7.70;99.90
53880;DHT22;39791;53.184;5.486;2022-12-07T17:23:13;7.70;99.90
53880;DHT22;39791;53.184;5.486;2022-12-07T17:25:39;7.70;99.90
53880;DHT22;39791;53.184;5.486;2022-12-07T17:28:04;7.80;99.90
53880;DHT22;39791;53.184;5.486;2022-12-07T17:30:30;7.80;99.90
53880;DHT22;39791;53.184;5.486;2022-12-07T17:32:56;7.80;99.90
53880;DHT22;39791;53.184;5.486;2022-12-07T17:35:21;7.80;99.90
53880;DHT22;39791;53.184;5.486;2022-12-07T17:37:47;7.60;99.90